Time;durP1;ratioP1;P1;durP2;ratioP2;P2;SDS_P1;SDS_P2;PMS_P1;PMS_P2;Temp;Humidity;BMP_temperature;BMP_pressure;BME280_temperature;BME280_humidity;BME280_pressure;Samples;Min_cycle;Max_cycle;Signal;HPM_P1;HPM_P2
2022/08/14 00:00:15;;;;;;;3.83;2.00;;;23.60;99.90;;;;;;5051265;28;20407;-76
2022/08/14 00:02:41;;;;;;;4.35;2.08;;;23.60;99.90;;;;;;5050733;28;20081;-74
2022/08/14 00:05:12;;;;;;;6.28;1.80;;;23.60;99.90;;;;;;5050667;28;20056;-74
2022/08/14 00:07:38;;;;;;;2.83;1.60;;;23.60;99.90;;;;;;5050158;28;20045;-74
2022/08/14 00:10:08;;;;;;;3.53;1.92;;;23.50;99.90;;;;;;5051325;28;20393;-74
2022/08/14 00:12:36;;;;;;;4.00;2.35;;;23.50;99.90;;;;;;5051079;28;20025;-74
2022/08/14 00:15:06;;;;;;;3.58;2.05;;;23.40;99.90;;;;;;5051087;28;20077;-73
2022/08/14 00:17:32;;;;;;;3.13;1.92;;;23.40;99.90;;;;;;5049937;28;20025;-75
2022/08/14 00:19:57;;;;;;;2.83;1.90;;;23.40;99.90;;;;;;5050852;28;20068;-74
2022/08/14 00:22:23;;;;;;;2.72;2.17;;;23.40;99.90;;;;;;5051145;28;20025;-74
2022/08/14 00:24:48;;;;;;;2.95;2.05;;;23.40;99.90;;;;;;5051208;28;20487;-74
2022/08/14 00:27:14;;;;;;;5.18;1.95;;;23.40;99.90;;;;;;5053522;28;20032;-75
2022/08/14 00:29:40;;;;;;;3.03;1.90;;;23.30;99.90;;;;;;5055126;28;20108;-74
2022/08/14 00:32:14;;;;;;;4.93;2.38;;;23.40;99.90;;;;;;5036070;28;20120;-74
2022/08/14 00:34:40;;;;;;;4.22;2.35;;;23.30;99.90;;;;;;5054446;28;20052;-74
2022/08/14 00:37:06;;;;;;;14.68;1.75;;;23.30;99.90;;;;;;5036343;28;20053;-74
2022/08/14 00:39:31;;;;;;;3.85;1.65;;;23.30;99.90;;;;;;5054713;28;20021;-75
2022/08/14 00:41:57;;;;;;;4.60;2.53;;;23.30;99.90;;;;;;5054644;28;20029;-74
2022/08/14 00:44:23;;;;;;;3.05;1.95;;;23.40;99.90;;;;;;5036417;28;20083;-73
2022/08/14 00:46:48;;;;;;;8.80;3.08;;;23.30;99.90;;;;;;5054565;28;20032;-74
2022/08/14 00:49:14;;;;;;;4.03;2.22;;;23.30;99.90;;;;;;5054184;28;20106;-74
2022/08/14 00:51:42;;;;;;;3.75;2.28;;;23.30;99.90;;;;;;5054392;28;20115;-75
2022/08/14 00:54:08;;;;;;;8.73;2.50;;;23.30;99.90;;;;;;5054362;28;20585;-75
2022/08/14 00:56:35;;;;;;;5.45;2.00;;;23.30;99.90;;;;;;5053508;28;20018;-76
2022/08/14 00:59:02;;;;;;;2.80;2.05;;;23.30;99.90;;;;;;5035973;28;20029;-75
2022/08/14 01:01:28;;;;;;;9.52;2.03;;;23.20;99.90;;;;;;5053043;28;20025;-74
2022/08/14 01:03:56;;;;;;;3.13;1.85;;;23.20;99.90;;;;;;5035853;28;20064;-73
2022/08/14 01:06:22;;;;;;;4.28;1.95;;;23.20;99.90;;;;;;5054092;28;20044;-74
2022/08/14 01:08:49;;;;;;;5.53;2.05;;;23.20;99.90;;;;;;5053991;28;20044;-74
2022/08/14 01:11:16;;;;;;;3.60;2.00;;;23.10;99.90;;;;;;5054407;28;20059;-75
2022/08/14 01:13:44;;;;;;;7.15;3.10;;;23.10;99.90;;;;;;5053934;28;20032;-76
2022/08/14 01:16:15;;;;;;;5.00;2.42;;;23.10;99.90;;;;;;5053319;28;20030;-74
2022/08/14 01:21:37;;;;;;;4.10;2.15;;;23.10;99.90;;;;;;5049677;28;20037;-76
2022/08/14 01:24:09;;;;;;;4.53;2.00;;;23.00;99.90;;;;;;5053332;28;20033;-74
2022/08/14 01:26:35;;;;;;;7.53;1.92;;;23.00;99.90;;;;;;5033453;28;20024;-75
2022/08/14 01:29:04;;;;;;;3.17;2.08;;;22.90;99.90;;;;;;5035097;28;20033;-73
2022/08/14 01:31:41;;;;;;;5.18;2.50;;;23.00;99.90;;;;;;5053609;28;20021;-74
2022/08/14 01:34:07;;;;;;;3.38;2.10;;;22.90;99.90;;;;;;5052231;28;20120;-74
2022/08/14 01:36:36;;;;;;;2.08;1.60;;;22.90;99.90;;;;;;5034677;28;20100;-73
2022/08/14 01:39:08;;;;;;;2.38;1.55;;;22.90;99.90;;;;;;5051004;28;20028;-74
2022/08/14 01:41:35;;;;;;;4.72;2.60;;;22.90;99.90;;;;;;5053639;28;20036;-73
2022/08/14 01:44:07;;;;;;;2.60;1.77;;;22.90;99.90;;;;;;5053302;28;20021;-73
2022/08/14 01:46:39;;;;;;;5.55;2.67;;;22.80;99.90;;;;;;5052259;28;20021;-73
2022/08/14 01:49:08;;;;;;;3.60;1.92;;;22.80;99.90;;;;;;5051892;28;20425;-74
2022/08/14 01:51:35;;;;;;;7.88;2.50;;;22.70;99.90;;;;;;5052563;28;20021;-75
2022/08/14 01:54:14;;;;;;;8.50;1.92;;;22.70;99.90;;;;;;5052240;28;20053;-75
2022/08/14 01:56:43;;;;;;;3.50;1.73;;;22.70;99.90;;;;;;5052894;28;20064;-75
2022/08/14 01:59:14;;;;;;;4.20;1.98;;;22.70;99.90;;;;;;5035217;28;20051;-74
2022/08/14 02:01:42;;;;;;;6.45;2.03;;;22.60;99.90;;;;;;5053384;28;20032;-73
2022/08/14 02:04:09;;;;;;;5.40;2.50;;;22.50;99.90;;;;;;5052391;28;20063;-75
2022/08/14 02:06:36;;;;;;;3.53;2.17;;;22.40;99.90;;;;;;5052706;28;20470;-76
2022/08/14 02:09:04;;;;;;;3.92;2.05;;;22.40;99.90;;;;;;5034483;28;20041;-73
2022/08/14 02:11:30;;;;;;;3.35;2.30;;;22.30;99.90;;;;;;5034581;28;20028;-74
2022/08/14 02:14:03;;;;;;;4.07;2.88;;;22.30;99.90;;;;;;5052291;28;20585;-74
2022/08/14 02:16:35;;;;;;;5.13;2.95;;;22.30;99.90;;;;;;5052082;28;20026;-74
2022/08/14 02:19:06;;;;;;;7.65;2.30;;;22.20;99.90;;;;;;5052164;28;20370;-74
2022/08/14 02:21:31;;;;;;;13.50;2.47;;;22.20;99.90;;;;;;5052940;28;20033;-73
2022/08/14 02:24:00;;;;;;;6.00;2.72;;;22.20;99.90;;;;;;5052280;28;20029;-75
2022/08/14 02:26:32;;;;;;;3.15;2.10;;;22.20;99.90;;;;;;5052161;28;20060;-74
2022/08/14 02:29:02;;;;;;;6.72;2.30;;;22.20;99.90;;;;;;5034734;28;20394;-73
2022/08/14 02:31:31;;;;;;;15.73;3.45;;;22.20;99.90;;;;;;5052026;28;20021;-73
2022/08/14 02:34:12;;;;;;;18.10;3.33;;;22.20;99.90;;;;;;5052161;28;20041;-74
2022/08/14 02:36:39;;;;;;;20.33;3.47;;;22.20;99.90;;;;;;5034148;28;20033;-74
2022/08/14 02:39:08;;;;;;;7.75;3.38;;;22.20;99.90;;;;;;5033139;28;20030;-74
2022/08/14 02:41:34;;;;;;;7.22;2.97;;;22.20;99.90;;;;;;5051509;28;20033;-73
2022/08/14 02:44:01;;;;;;;4.25;2.25;;;22.20;99.90;;;;;;5051950;28;20025;-73
2022/08/14 02:46:27;;;;;;;3.20;2.20;;;22.10;99.90;;;;;;5051534;28;20021;-73
2022/08/14 02:48:53;;;;;;;5.80;2.97;;;22.20;99.90;;;;;;5051714;28;20045;-76
2022/08/14 02:51:18;;;;;;;5.78;2.40;;;22.10;99.90;;;;;;5034128;28;20028;-74
2022/08/14 02:53:45;;;;;;;3.88;2.45;;;22.20;99.90;;;;;;5052034;28;20021;-74
2022/08/14 02:56:18;;;;;;;3.30;2.15;;;22.20;99.90;;;;;;5051903;28;20545;-74
2022/08/14 02:58:46;;;;;;;3.15;2.30;;;22.20;99.90;;;;;;5033667;28;20021;-74
2022/08/14 03:01:14;;;;;;;4.13;2.58;;;22.20;99.90;;;;;;5051319;28;20017;-73
2022/08/14 03:03:40;;;;;;;4.53;2.63;;;22.20;99.90;;;;;;5051723;28;20133;-74
2022/08/14 03:06:07;;;;;;;1.98;1.58;;;22.20;99.90;;;;;;5050297;28;20152;-74
2022/08/14 03:08:36;;;;;;;9.52;2.92;;;22.20;99.90;;;;;;5051893;28;20693;-77
2022/08/14 03:11:06;;;;;;;4.05;2.33;;;22.20;99.90;;;;;;5051141;28;20492;-74
2022/08/14 03:13:38;;;;;;;3.78;2.20;;;22.20;99.90;;;;;;5051106;28;20029;-74
2022/08/14 03:16:06;;;;;;;13.25;2.45;;;22.20;99.90;;;;;;5051777;28;20029;-74
2022/08/14 03:18:31;;;;;;;4.63;2.65;;;22.20;99.90;;;;;;5050891;28;20052;-74
2022/08/14 03:20:59;;;;;;;3.45;2.40;;;22.10;99.90;;;;;;5050338;28;20038;-76
2022/08/14 03:23:24;;;;;;;7.22;2.10;;;22.10;99.90;;;;;;5050716;28;20046;-75
2022/08/14 03:25:53;;;;;;;4.32;2.25;;;22.10;99.90;;;;;;5051963;28;20029;-75
2022/08/14 03:28:22;;;;;;;3.17;2.33;;;22.10;99.90;;;;;;5050085;28;20038;-76
2022/08/14 03:30:47;;;;;;;3.83;2.08;;;22.10;99.90;;;;;;5051759;28;20088;-75
2022/08/14 03:33:13;;;;;;;5.07;2.45;;;22.20;99.90;;;;;;5051783;28;20429;-74
2022/08/14 03:35:41;;;;;;;2.17;1.40;;;22.10;99.90;;;;;;5051148;28;20031;-75
2022/08/14 03:38:08;;;;;;;4.65;2.70;;;22.10;99.90;;;;;;5032893;28;20021;-76
2022/08/14 03:40:37;;;;;;;3.00;1.88;;;22.00;99.90;;;;;;5050967;28;20029;-75
2022/08/14 03:43:04;;;;;;;4.75;2.22;;;22.10;99.90;;;;;;5050431;28;20029;-74
2022/08/14 03:45:31;;;;;;;3.47;2.38;;;22.00;99.90;;;;;;5051270;28;20013;-75
2022/08/14 03:47:59;;;;;;;4.38;2.22;;;22.10;99.90;;;;;;5050959;28;20485;-73
2022/08/14 03:50:26;;;;;;;4.78;2.30;;;22.00;99.90;;;;;;5050852;28;20081;-74
2022/08/14 03:52:51;;;;;;;5.95;2.25;;;22.00;99.90;;;;;;5050618;28;20021;-76
2022/08/14 03:55:17;;;;;;;4.88;2.22;;;22.00;99.90;;;;;;5051211;28;20078;-73
2022/08/14 03:57:43;;;;;;;4.03;2.45;;;22.00;99.90;;;;;;5051576;28;20048;-73
2022/08/14 04:00:12;;;;;;;3.35;2.25;;;22.00;99.90;;;;;;5032734;28;20043;-74
2022/08/14 04:02:39;;;;;;;4.15;2.08;;;22.00;99.90;;;;;;5052185;28;20017;-74
2022/08/14 04:05:07;;;;;;;2.80;1.92;;;22.00;99.90;;;;;;5050790;28;20053;-77
2022/08/14 04:07:33;;;;;;;6.28;2.40;;;22.00;99.90;;;;;;5035921;28;20025;-75
2022/08/14 04:09:59;;;;;;;2.88;2.13;;;22.00;99.90;;;;;;5054645;28;20028;-74
2022/08/14 04:12:25;;;;;;;3.83;2.38;;;22.00;99.90;;;;;;5054966;28;20064;-75
2022/08/14 04:14:51;;;;;;;3.58;2.30;;;22.00;99.90;;;;;;5053967;28;20033;-74
2022/08/14 04:17:20;;;;;;;5.93;2.13;;;22.00;99.90;;;;;;5054747;28;20025;-75
2022/08/14 04:19:46;;;;;;;2.95;1.98;;;21.90;99.90;;;;;;5055024;28;20056;-75
2022/08/14 04:22:12;;;;;;;7.97;2.20;;;21.90;99.90;;;;;;5054219;28;20029;-74
2022/08/14 04:24:39;;;;;;;8.45;2.20;;;21.90;99.90;;;;;;5054802;28;20027;-74
2022/08/14 04:27:10;;;;;;;3.10;1.88;;;21.90;99.90;;;;;;5054354;28;20049;-74
2022/08/14 04:29:40;;;;;;;3.67;1.90;;;21.90;99.90;;;;;;5054487;28;20036;-76
2022/08/14 04:32:07;;;;;;;4.57;2.42;;;21.90;99.90;;;;;;5035892;28;20026;-74
2022/08/14 04:34:35;;;;;;;3.13;2.08;;;21.90;99.90;;;;;;5054532;28;20626;-76
2022/08/14 04:45:14;;;;;;;6.43;2.00;;;21.90;99.90;;;;;;5054571;28;20039;-75
2022/08/14 04:50:26;;;;;;;3.47;2.10;;;21.70;99.90;;;;;;5053884;28;20028;-75
2022/08/14 04:52:51;;;;;;;4.25;2.67;;;21.80;99.90;;;;;;5054420;28;20029;-75
2022/08/14 04:55:17;;;;;;;3.55;2.17;;;21.80;99.90;;;;;;5054322;28;20029;-75
2022/08/14 04:57:43;;;;;;;6.30;2.75;;;21.80;99.90;;;;;;5036170;28;20051;-76
2022/08/14 05:00:09;;;;;;;3.97;2.58;;;21.80;99.90;;;;;;5053253;28;20018;-73
2022/08/14 05:02:35;;;;;;;3.97;2.22;;;21.80;99.90;;;;;;5035490;28;20009;-74
2022/08/14 05:05:01;;;;;;;3.42;1.95;;;21.90;99.90;;;;;;5036043;28;20079;-75
2022/08/14 05:07:30;;;;;;;4.07;2.03;;;21.90;99.90;;;;;;5035959;28;20025;-75
2022/08/14 05:09:55;;;;;;;3.78;2.55;;;21.80;99.90;;;;;;5035126;28;20026;-74
2022/08/14 05:12:21;;;;;;;3.88;2.25;;;21.90;99.90;;;;;;5053958;28;20036;-76
2022/08/14 05:14:47;;;;;;;3.67;2.40;;;21.90;99.90;;;;;;5035424;28;20029;-73
2022/08/14 05:17:12;;;;;;;3.10;2.17;;;21.90;99.90;;;;;;5036095;28;20079;-74
2022/08/14 05:19:38;;;;;;;3.15;2.10;;;22.00;99.90;;;;;;5036034;28;20135;-74
2022/08/14 05:22:04;;;;;;;4.30;2.20;;;22.10;99.90;;;;;;5053030;28;20057;-74
2022/08/14 05:24:30;;;;;;;4.38;2.58;;;22.10;99.90;;;;;;5053536;28;20021;-75
2022/08/14 05:26:55;;;;;;;2.25;1.67;;;22.10;99.90;;;;;;5054206;28;20044;-73
2022/08/14 05:29:21;;;;;;;3.15;2.15;;;22.20;99.90;;;;;;5053624;28;20056;-75
2022/08/14 05:31:47;;;;;;;2.80;1.73;;;22.20;99.90;;;;;;5052798;28;20025;-73
2022/08/14 05:34:12;;;;;;;5.93;2.20;;;22.30;99.90;;;;;;5053450;28;20119;-71
2022/08/14 05:36:38;;;;;;;3.72;2.50;;;22.30;99.90;;;;;;5052735;28;20025;-72
2022/08/14 05:39:05;;;;;;;3.38;2.30;;;22.20;99.90;;;;;;5048964;28;20175;-71
2022/08/14 05:41:31;;;;;;;4.95;1.95;;;22.40;99.90;;;;;;5033659;28;20017;-73
2022/08/14 05:43:57;;;;;;;3.30;2.08;;;22.40;99.90;;;;;;5053125;28;20024;-75
2022/08/14 05:46:23;;;;;;;5.47;2.20;;;22.50;99.90;;;;;;5053049;28;20025;-75
2022/08/14 05:48:52;;;;;;;3.55;2.22;;;22.60;99.90;;;;;;5053417;28;20036;-74
2022/08/14 05:51:18;;;;;;;3.53;2.00;;;22.70;99.90;;;;;;5052850;28;20018;-75
2022/08/14 05:53:44;;;;;;;2.58;2.05;;;22.70;99.90;;;;;;5053274;28;20144;-74
2022/08/14 05:56:10;;;;;;;5.13;2.15;;;22.80;99.90;;;;;;5053394;28;20013;-75
2022/08/14 05:58:36;;;;;;;4.22;2.10;;;22.90;99.90;;;;;;5053255;28;20037;-73
2022/08/14 06:01:02;;;;;;;3.22;2.28;;;22.90;99.90;;;;;;5050043;28;20033;-73
2022/08/14 06:03:27;;;;;;;4.50;2.08;;;22.90;99.90;;;;;;5051975;28;20045;-73
2022/08/14 06:05:54;;;;;;;2.53;1.80;;;23.00;99.90;;;;;;5051460;28;20056;-76
2022/08/14 06:08:26;;;;;;;4.53;2.30;;;23.00;99.90;;;;;;5048568;28;20079;-75
2022/08/14 06:10:54;;;;;;;3.42;2.03;;;23.00;99.90;;;;;;5045849;28;20110;-74
2022/08/14 06:13:20;;;;;;;3.28;1.75;;;23.10;99.90;;;;;;5048321;28;20076;-75
2022/08/14 06:15:47;;;;;;;3.97;2.28;;;23.20;99.90;;;;;;5049698;28;20089;-76
2022/08/14 06:18:17;;;;;;;4.53;2.17;;;23.20;99.90;;;;;;5033024;28;20083;-75
2022/08/14 06:20:44;;;;;;;4.63;2.03;;;23.30;99.90;;;;;;5052169;28;20025;-75
2022/08/14 06:23:10;;;;;;;3.20;2.15;;;23.30;99.90;;;;;;5052095;28;20093;-74
2022/08/14 06:25:35;;;;;;;3.05;2.20;;;23.40;99.90;;;;;;5034260;28;20077;-76
2022/08/14 06:28:02;;;;;;;13.23;2.35;;;23.40;99.90;;;;;;5033715;28;20112;-76
2022/08/14 06:30:31;;;;;;;3.45;2.08;;;23.40;99.90;;;;;;5052900;28;20017;-74
2022/08/14 06:32:58;;;;;;;3.15;2.42;;;23.40;99.90;;;;;;5050048;28;20112;-74
2022/08/14 06:35:23;;;;;;;2.85;1.73;;;23.40;99.90;;;;;;5034400;28;20055;-73
2022/08/14 06:37:51;;;;;;;4.75;2.65;;;23.40;99.90;;;;;;5051683;28;20053;-73
2022/08/14 06:40:22;;;;;;;5.20;2.60;;;23.40;99.90;;;;;;5050676;28;20024;-73
2022/08/14 06:42:48;;;;;;;2.17;1.98;;;23.50;99.90;;;;;;5052492;28;20033;-73
2022/08/14 06:45:15;;;;;;;8.73;2.83;;;23.50;99.90;;;;;;5049956;28;20021;-77
2022/08/14 06:47:42;;;;;;;3.90;2.10;;;23.60;99.90;;;;;;5033382;28;20025;-76
2022/08/14 06:50:13;;;;;;;4.80;2.42;;;23.60;99.90;;;;;;5033732;28;20056;-74
2022/08/14 06:52:40;;;;;;;3.97;2.42;;;23.60;99.90;;;;;;5030663;28;20027;-74
2022/08/14 06:55:06;;;;;;;3.33;2.55;;;23.70;99.90;;;;;;5048260;28;20033;-74
2022/08/14 06:57:37;;;;;;;4.80;2.50;;;23.80;99.90;;;;;;5032187;28;20021;-76
2022/08/14 07:00:15;;;;;;;2.67;2.30;;;23.80;99.90;;;;;;5049400;28;20030;-76
2022/08/14 07:08:19;;;;;;;3.53;2.38;;;24.00;99.90;;;;;;5052263;28;20049;-75
2022/08/14 07:10:48;;;;;;;4.30;2.38;;;24.10;99.90;;;;;;5052332;28;20037;-75
2022/08/14 07:13:19;;;;;;;2.72;2.05;;;24.10;99.90;;;;;;5034362;28;20035;-73
2022/08/14 07:15:54;;;;;;;3.70;2.40;;;24.10;99.90;;;;;;5051542;28;20033;-75
2022/08/14 07:18:26;;;;;;;20.92;2.58;;;24.20;99.90;;;;;;5051651;28;20033;-74
2022/08/14 07:20:53;;;;;;;4.22;2.45;;;24.20;99.90;;;;;;5032496;28;20080;-72
2022/08/14 07:23:20;;;;;;;3.67;2.50;;;24.30;99.90;;;;;;5034217;28;20029;-72
2022/08/14 07:25:47;;;;;;;7.45;2.70;;;24.30;99.90;;;;;;5052084;28;20029;-72
2022/08/14 07:28:17;;;;;;;6.55;2.45;;;24.40;99.90;;;;;;5051678;28;20026;-70
2022/08/14 07:30:51;;;;;;;4.97;2.90;;;24.40;99.90;;;;;;5051450;28;20022;-73
2022/08/14 07:33:16;;;;;;;6.78;3.08;;;24.50;99.90;;;;;;5034171;28;20017;-72
2022/08/14 07:35:42;;;;;;;3.45;2.20;;;24.70;99.90;;;;;;5032645;28;20083;-72
2022/08/14 07:38:19;;;;;;;6.30;2.67;;;24.70;99.90;;;;;;5032939;28;20044;-71
2022/08/14 07:40:45;;;;;;;4.05;2.45;;;24.90;99.90;;;;;;5051504;28;20108;-73
2022/08/14 07:43:12;;;;;;;4.40;2.63;;;24.90;99.90;;;;;;5051354;28;20029;-71
2022/08/14 07:45:39;;;;;;;3.90;2.40;;;24.90;99.90;;;;;;5033559;28;20025;-72
2022/08/14 07:48:05;;;;;;;3.45;2.47;;;25.00;99.90;;;;;;5042550;28;20077;-72
2022/08/14 07:50:32;;;;;;;3.97;2.47;;;25.00;99.90;;;;;;5047853;28;20060;-72
2022/08/14 07:52:58;;;;;;;5.32;2.83;;;25.00;99.90;;;;;;5030346;28;20033;-71
2022/08/14 07:55:24;;;;;;;4.50;2.85;;;25.10;99.90;;;;;;5033311;28;20044;-72
2022/08/14 07:57:51;;;;;;;5.20;2.35;;;25.20;99.90;;;;;;5048508;28;20048;-72
2022/08/14 08:00:21;;;;;;;4.63;2.47;;;25.20;99.90;;;;;;5051576;28;20021;-75
2022/08/14 08:02:51;;;;;;;4.70;2.83;;;25.20;99.90;;;;;;5050984;28;20028;-74
2022/08/14 08:05:18;;;;;;;8.55;3.40;;;25.20;99.90;;;;;;5050100;28;20088;-73
2022/08/14 08:07:46;;;;;;;5.45;3.50;;;25.20;99.90;;;;;;5051309;28;20021;-74
2022/08/14 08:10:31;;;;;;;5.93;2.97;;;25.20;99.90;;;;;;5050429;28;20057;-75
2022/08/14 08:13:08;;;;;;;4.38;2.72;;;25.10;99.90;;;;;;5049861;28;20033;-72
2022/08/14 08:15:35;;;;;;;6.25;3.72;;;25.10;99.90;;;;;;5051180;28;20473;-72
2022/08/14 08:18:03;;;;;;;7.03;3.00;;;25.20;99.90;;;;;;5050493;28;20036;-73
2022/08/14 08:20:38;;;;;;;7.45;3.25;;;25.20;99.90;;;;;;5029480;28;20025;-70
2022/08/14 08:23:05;;;;;;;6.03;2.67;;;25.20;99.90;;;;;;5050902;28;20029;-72
2022/08/14 08:25:34;;;;;;;4.55;2.35;;;25.30;99.90;;;;;;5050240;28;20024;-72
2022/08/14 08:28:05;;;;;;;5.72;2.83;;;25.40;99.90;;;;;;5049542;28;20081;-72
2022/08/14 08:30:32;;;;;;;7.00;3.30;;;25.50;99.90;;;;;;5051248;28;20017;-74
2022/08/14 08:33:00;;;;;;;5.57;3.15;;;25.70;99.90;;;;;;5050106;28;20390;-72
2022/08/14 08:35:29;;;;;;;3.75;2.65;;;25.80;99.90;;;;;;5050855;28;20025;-73
2022/08/14 08:38:11;;;;;;;3.85;2.60;;;26.00;99.90;;;;;;5051099;28;20051;-73
2022/08/14 08:40:44;;;;;;;5.25;3.30;;;26.10;99.90;;;;;;5030447;28;20080;-73
2022/08/14 08:43:23;;;;;;;3.90;2.55;;;26.10;99.90;;;;;;5050450;28;20025;-74
2022/08/14 08:46:00;;;;;;;6.18;3.25;;;26.10;99.90;;;;;;5045821;28;20559;-73
2022/08/14 08:48:42;;;;;;;3.50;2.25;;;26.20;99.90;;;;;;5033889;28;20533;-72
2022/08/14 08:51:20;;;;;;;3.90;2.65;;;26.40;99.90;;;;;;5052017;28;20047;-75
2022/08/14 08:53:55;;;;;;;3.90;2.65;;;26.50;99.90;;;;;;5052685;28;20025;-74
2022/08/14 08:56:31;;;;;;;6.22;3.05;;;26.60;99.90;;;;;;5053347;28;20116;-73
2022/08/14 08:58:56;;;;;;;6.03;2.50;;;26.60;99.90;;;;;;5050050;28;20131;-74
2022/08/14 09:01:30;;;;;;;5.13;2.47;;;26.70;99.90;;;;;;5051940;28;20049;-76
2022/08/14 09:04:03;;;;;;;4.50;2.60;;;26.80;99.90;;;;;;5034526;28;20028;-75
2022/08/14 09:06:28;;;;;;;6.13;2.72;;;27.00;99.90;;;;;;5053161;28;20053;-75
2022/08/14 09:08:54;;;;;;;4.10;2.80;;;27.20;99.90;;;;;;5033996;28;20024;-75
2022/08/14 09:11:22;;;;;;;3.97;2.70;;;27.30;99.90;;;;;;5052058;28;20060;-74
2022/08/14 09:13:52;;;;;;;4.05;2.35;;;27.40;99.90;;;;;;5050471;28;20032;-72
2022/08/14 09:16:23;;;;;;;7.07;2.60;;;27.50;99.90;;;;;;5052095;28;20013;-77
2022/08/14 09:18:49;;;;;;;3.92;2.35;;;27.50;99.90;;;;;;5052799;28;20045;-75
2022/08/14 09:21:19;;;;;;;6.53;3.42;;;27.60;99.90;;;;;;5052474;28;20032;-77
2022/08/14 09:23:45;;;;;;;5.47;2.92;;;27.70;99.90;;;;;;5034956;28;20053;-75
2022/08/14 09:26:10;;;;;;;6.35;2.80;;;27.80;99.90;;;;;;5053084;28;20052;-73
2022/08/14 09:28:36;;;;;;;5.05;2.88;;;27.80;99.90;;;;;;5051137;28;20086;-72
2022/08/14 09:31:02;;;;;;;3.83;2.53;;;27.70;99.90;;;;;;5051965;28;20597;-75
2022/08/14 09:33:33;;;;;;;3.03;2.25;;;27.70;99.90;;;;;;5050974;28;20026;-73
2022/08/14 09:36:25;;;;;;;4.40;2.22;;;27.70;99.90;;;;;;5035501;28;20041;-75
2022/08/14 09:39:05;;;;;;;5.35;2.78;;;27.80;99.90;;;;;;5052871;28;20039;-75
2022/08/14 09:41:34;;;;;;;5.43;2.88;;;27.90;99.90;;;;;;5049822;28;20025;-76
2022/08/14 09:44:02;;;;;;;3.80;1.95;;;28.00;99.90;;;;;;5052336;28;20026;-75
2022/08/14 09:46:28;;;;;;;4.55;2.78;;;28.10;99.90;;;;;;5050868;28;20033;-74
2022/08/14 09:49:02;;;;;;;3.97;2.65;;;28.30;99.90;;;;;;5052271;28;20125;-75
2022/08/14 09:51:29;;;;;;;4.00;2.50;;;28.40;99.90;;;;;;5052726;28;20036;-77
2022/08/14 09:54:06;;;;;;;5.32;2.75;;;28.60;99.90;;;;;;5053320;28;20481;-74
2022/08/14 09:56:47;;;;;;;4.93;2.75;;;28.70;99.90;;;;;;5048395;28;20040;-76
2022/08/14 09:59:16;;;;;;;5.40;2.65;;;28.70;99.90;;;;;;5051670;28;20056;-73
2022/08/14 10:01:43;;;;;;;6.32;2.72;;;28.70;99.90;;;;;;5053135;28;20025;-74
2022/08/14 10:04:24;;;;;;;7.05;3.25;;;28.80;99.90;;;;;;5052249;28;20044;-75
2022/08/14 10:06:50;;;;;;;4.60;2.35;;;28.90;99.90;;;;;;5032025;28;20831;-74
2022/08/14 10:09:17;;;;;;;4.85;2.97;;;29.00;99.90;;;;;;5052878;28;20017;-75
2022/08/14 10:11:55;;;;;;;6.50;3.63;;;29.10;99.90;;;;;;5051199;28;20063;-72
2022/08/14 10:14:24;;;;;;;7.18;2.90;;;29.20;99.90;;;;;;5046780;28;20519;-76
2022/08/14 10:16:53;;;;;;;4.88;2.75;;;29.20;99.90;;;;;;5050684;28;20032;-78
2022/08/14 10:19:27;;;;;;;6.57;3.28;;;29.30;99.90;;;;;;5049397;28;20485;-79
2022/08/14 10:22:04;;;;;;;4.40;2.88;;;29.40;99.90;;;;;;5032437;28;20025;-75
2022/08/14 10:24:36;;;;;;;3.33;2.33;;;29.50;99.90;;;;;;5047723;28;20100;-74
2022/08/14 10:27:01;;;;;;;4.57;3.00;;;29.60;99.90;;;;;;5050627;28;20064;-77
2022/08/14 10:29:39;;;;;;;3.47;2.40;;;29.60;99.90;;;;;;5049938;28;20057;-73
2022/08/14 10:32:09;;;;;;;5.22;3.33;;;29.60;99.90;;;;;;5050190;28;20501;-71
2022/08/14 10:34:40;;;;;;;2.53;2.08;;;29.70;99.90;;;;;;5050430;28;20028;-76
2022/08/14 10:37:09;;;;;;;5.32;2.95;;;29.80;99.90;;;;;;5050589;28;20053;-76
2022/08/14 10:39:40;;;;;;;3.22;2.15;;;29.90;99.90;;;;;;5032358;28;20033;-75
2022/08/14 10:42:10;;;;;;;4.97;2.85;;;30.00;99.90;;;;;;5031723;28;20037;-76
2022/08/14 10:44:48;;;;;;;4.82;2.83;;;30.10;99.90;;;;;;5033758;28;20112;-73
2022/08/14 10:47:17;;;;;;;3.70;2.50;;;30.30;99.90;;;;;;5033527;28;20033;-75
2022/08/14 10:50:05;;;;;;;4.20;2.40;;;30.40;99.90;;;;;;5051027;28;20025;-75
2022/08/14 10:52:33;;;;;;;5.50;2.70;;;30.50;99.90;;;;;;5033586;28;20026;-75
2022/08/14 10:55:18;;;;;;;6.25;2.70;;;30.60;99.90;;;;;;5027971;28;20029;-77
2022/08/14 10:57:49;;;;;;;3.63;2.25;;;30.70;99.90;;;;;;5048490;28;20028;-74
2022/08/14 11:00:22;;;;;;;5.35;2.72;;;30.70;99.90;;;;;;5052017;28;20033;-74
2022/08/14 11:03:08;;;;;;;4.30;2.40;;;30.80;99.90;;;;;;5050905;28;20057;-77
2022/08/14 11:05:46;;;;;;;7.50;2.83;;;30.90;99.90;;;;;;5047803;28;20076;-79
2022/08/14 11:08:14;;;;;;;3.22;2.15;;;31.00;99.90;;;;;;5048741;28;20053;-73
2022/08/14 11:10:49;;;;;;;14.05;1.95;;;30.90;99.90;;;;;;5049798;28;20067;-73
2022/08/14 11:13:22;;;;;;;8.35;2.47;;;30.90;99.90;;;;;;5050846;28;20079;-76
2022/08/14 11:15:50;;;;;;;4.30;2.50;;;31.00;99.90;;;;;;5050386;28;20037;-77
2022/08/14 11:18:17;;;;;;;3.15;1.80;;;31.00;99.90;;;;;;5032270;28;20051;-75
2022/08/14 11:20:54;;;;;;;3.30;2.40;;;30.90;99.90;;;;;;5052158;28;20025;-74
2022/08/14 11:23:25;;;;;;;4.82;2.75;;;30.80;99.90;;;;;;5051786;28;20051;-75
2022/08/14 11:25:52;;;;;;;2.95;2.08;;;30.90;99.90;;;;;;5051386;28;20059;-73
2022/08/14 11:28:22;;;;;;;5.22;2.28;;;31.00;99.90;;;;;;5051108;28;20025;-78
2022/08/14 11:30:49;;;;;;;7.68;2.97;;;31.20;99.90;;;;;;5051595;28;20014;-74
2022/08/14 11:33:15;;;;;;;6.32;2.75;;;31.30;99.90;;;;;;5050993;28;20029;-75
2022/08/14 11:35:42;;;;;;;4.47;2.38;;;31.20;99.90;;;;;;5051412;28;20095;-75
2022/08/14 11:38:11;;;;;;;4.30;2.50;;;31.40;99.90;;;;;;5033425;28;20041;-74
2022/08/14 11:40:38;;;;;;;3.28;2.22;;;31.50;99.90;;;;;;5033446;28;20506;-78
2022/08/14 11:43:06;;;;;;;2.88;2.13;;;31.70;99.90;;;;;;5050621;28;20512;-76
2022/08/14 11:45:34;;;;;;;4.20;2.60;;;31.80;99.90;;;;;;5051392;28;20036;-73
2022/08/14 11:48:23;;;;;;;5.00;2.78;;;31.90;99.90;;;;;;5048953;28;20036;-77
2022/08/14 11:50:53;;;;;;;4.50;2.80;;;32.00;99.80;;;;;;5033835;28;20040;-76
2022/08/14 11:53:29;;;;;;;3.90;2.30;;;31.80;99.90;;;;;;5034564;28;20035;-73
2022/08/14 11:56:03;;;;;;;16.33;2.55;;;31.80;99.90;;;;;;5050561;28;20091;-75
2022/08/14 11:58:37;;;;;;;6.35;2.50;;;31.80;99.90;;;;;;5033315;28;20414;-73
2022/08/14 12:01:05;;;;;;;3.42;1.90;;;32.00;99.90;;;;;;5051355;28;20042;-73
2022/08/14 12:03:45;;;;;;;3.80;2.45;;;32.10;99.90;;;;;;5050881;28;20025;-72
2022/08/14 12:06:14;;;;;;;7.47;2.47;;;32.10;99.90;;;;;;5050082;28;20407;-76
2022/08/14 12:08:41;;;;;;;3.35;2.15;;;32.30;99.90;;;;;;5033290;28;20029;-79
2022/08/14 12:11:09;;;;;;;4.80;2.45;;;32.40;99.90;;;;;;5050705;28;20029;-73
2022/08/14 12:13:35;;;;;;;7.55;2.38;;;32.50;99.90;;;;;;5050534;28;20017;-73
2022/08/14 12:16:06;;;;;;;4.63;2.00;;;32.60;99.90;;;;;;5051035;28;20108;-72
2022/08/14 12:18:42;;;;;;;4.03;2.35;;;32.60;99.90;;;;;;5050443;28;20025;-74
2022/08/14 12:21:22;;;;;;;4.97;2.42;;;32.70;98.50;;;;;;5051133;28;20022;-77
2022/08/14 12:24:04;;;;;;;4.93;2.65;;;32.60;98.20;;;;;;5052856;28;20021;-73
2022/08/14 12:26:30;;;;;;;4.43;2.63;;;32.50;98.40;;;;;;5036804;28;20397;-73
2022/08/14 12:29:10;;;;;;;3.83;2.00;;;32.50;98.90;;;;;;5055256;28;20100;-73
2022/08/14 12:31:37;;;;;;;16.70;3.20;;;32.50;98.70;;;;;;5054890;28;20120;-74
2022/08/14 12:34:05;;;;;;;3.00;2.08;;;32.50;99.10;;;;;;5036643;28;20018;-74
2022/08/14 12:36:40;;;;;;;3.33;2.55;;;32.50;98.90;;;;;;5054172;28;20037;-74
2022/08/14 12:39:22;;;;;;;2.53;2.08;;;32.60;98.50;;;;;;5053801;28;20561;-76
2022/08/14 12:41:55;;;;;;;4.85;2.42;;;32.80;98.40;;;;;;5034377;28;20025;-75
2022/08/14 12:44:34;;;;;;;7.73;2.63;;;32.70;98.80;;;;;;5054037;28;20757;-75
2022/08/14 12:47:11;;;;;;;4.50;2.78;;;32.60;98.50;;;;;;5054222;28;20332;-73
2022/08/14 12:49:37;;;;;;;2.97;2.03;;;32.40;98.90;;;;;;5054436;28;20021;-74
2022/08/14 12:52:06;;;;;;;4.47;2.40;;;32.30;98.90;;;;;;5053960;28;20037;-73
2022/08/14 12:54:32;;;;;;;6.90;2.53;;;32.40;99.40;;;;;;5054086;28;20051;-74
2022/08/14 12:57:06;;;;;;;3.40;2.63;;;32.80;99.60;;;;;;5054210;28;20029;-75
2022/08/14 12:59:34;;;;;;;4.25;2.65;;;33.10;98.00;;;;;;5053215;28;20068;-72
2022/08/14 13:02:00;;;;;;;4.82;2.13;;;33.20;98.30;;;;;;5053874;28;20040;-73
2022/08/14 13:04:30;;;;;;;7.25;2.40;;;33.20;98.10;;;;;;5053402;28;20049;-72
2022/08/14 13:07:06;;;;;;;3.47;2.33;;;33.10;98.20;;;;;;5052963;28;20025;-75
2022/08/14 13:09:31;;;;;;;4.05;2.25;;;33.30;98.40;;;;;;5054397;28;20051;-75
2022/08/14 13:12:00;;;;;;;6.28;2.40;;;33.70;98.40;;;;;;5053526;28;20052;-76
2022/08/14 13:14:29;;;;;;;4.03;2.03;;;34.00;96.60;;;;;;5035276;28;20112;-75